sensor_id;sensor_type;location;lat;lon;timestamp;pressure;altitude;pressure_sealevel;temperature;humidity
70982;BME280;58640;51.320;9.456;2023-03-29T00:00:19;99668.34;;;4.07;85.35
70982;BME280;58640;51.320;9.456;2023-03-29T00:02:45;99671.13;;;4.05;85.51
70982;BME280;58640;51.320;9.456;2023-03-29T00:05:14;99675.19;;;4.20;84.34
70982;BME280;58640;51.320;9.456;2023-03-29T00:07:40;99664.34;;;4.12;85.28
70982;BME280;58640;51.320;9.456;2023-03-29T00:10:07;99662.53;;;3.92;86.73
70982;BME280;58640;51.320;9.456;2023-03-29T00:12:35;99665.19;;;4.13;85.33
70982;BME280;58640;51.320;9.456;2023-03-29T00:15:00;99657.25;;;4.22;85.28
70982;BME280;58640;51.320;9.456;2023-03-29T00:17:26;99651.81;;;4.03;86.59
70982;BME280;58640;51.320;9.456;2023-03-29T00:19:52;99651.28;;;4.09;85.78
70982;BME280;58640;51.320;9.456;2023-03-29T00:22:17;99642.97;;;3.82;88.40
70982;BME280;58640;51.320;9.456;2023-03-29T00:24:42;99634.06;;;3.72;88.27
70982;BME280;58640;51.320;9.456;2023-03-29T00:27:08;99630.53;;;3.72;88.53
70982;BME280;58640;51.320;9.456;2023-03-29T00:29:33;99621.94;;;3.79;88.75
70982;BME280;58640;51.320;9.456;2023-03-29T00:31:58;99616.03;;;3.76;89.58
70982;BME280;58640;51.320;9.456;2023-03-29T00:34:26;99619.47;;;3.67;90.38
70982;BME280;58640;51.320;9.456;2023-03-29T00:36:56;99610.97;;;3.73;90.75
70982;BME280;58640;51.320;9.456;2023-03-29T00:39:23;99607.25;;;3.85;89.73
70982;BME280;58640;51.320;9.456;2023-03-29T00:41:49;99600.34;;;3.93;89.20
70982;BME280;58640;51.320;9.456;2023-03-29T00:47:26;99604.13;;;3.80;91.33
70982;BME280;58640;51.320;9.456;2023-03-29T00:49:53;99592.88;;;3.67;92.53
70982;BME280;58640;51.320;9.456;2023-03-29T00:52:20;99595.78;;;3.64;92.36
70982;BME280;58640;51.320;9.456;2023-03-29T00:54:49;99577.44;;;3.81;91.43
70982;BME280;58640;51.320;9.456;2023-03-29T00:57:19;99570.41;;;3.80;91.61
70982;BME280;58640;51.320;9.456;2023-03-29T00:59:47;99579.44;;;3.68;92.33
70982;BME280;58640;51.320;9.456;2023-03-29T01:02:15;99577.34;;;3.72;92.97
70982;BME280;58640;51.320;9.456;2023-03-29T01:04:58;99566.38;;;4.06;90.46
70982;BME280;58640;51.320;9.456;2023-03-29T01:08:08;99562.16;;;3.83;91.18
70982;BME280;58640;51.320;9.456;2023-03-29T01:10:46;99560.63;;;3.81;91.83
70982;BME280;58640;51.320;9.456;2023-03-29T01:13:18;99560.34;;;3.84;91.43
70982;BME280;58640;51.320;9.456;2023-03-29T01:15:45;99552.91;;;3.78;92.22
70982;BME280;58640;51.320;9.456;2023-03-29T01:18:11;99559.78;;;3.80;92.20
70982;BME280;58640;51.320;9.456;2023-03-29T01:29:20;99545.06;;;3.76;92.86
70982;BME280;58640;51.320;9.456;2023-03-29T01:31:57;99537.75;;;3.78;92.44
70982;BME280;58640;51.320;9.456;2023-03-29T01:34:29;99530.78;;;3.77;92.53
70982;BME280;58640;51.320;9.456;2023-03-29T01:37:22;99525.06;;;3.61;94.51
70982;BME280;58640;51.320;9.456;2023-03-29T01:39:52;99526.63;;;3.64;94.29
70982;BME280;58640;51.320;9.456;2023-03-29T01:42:30;99524.41;;;3.69;94.47
70982;BME280;58640;51.320;9.456;2023-03-29T01:45:23;99513.66;;;3.50;95.81
70982;BME280;58640;51.320;9.456;2023-03-29T01:47:53;99511.13;;;3.48;95.93
70982;BME280;58640;51.320;9.456;2023-03-29T01:50:48;99514.09;;;3.55;95.54
70982;BME280;58640;51.320;9.456;2023-03-29T01:55:51;99509.69;;;3.44;96.41
70982;BME280;58640;51.320;9.456;2023-03-29T01:58:20;99508.31;;;3.50;95.77
70982;BME280;58640;51.320;9.456;2023-03-29T02:00:48;99515.91;;;3.34;96.98
70982;BME280;58640;51.320;9.456;2023-03-29T02:03:19;99500.69;;;3.36;96.49
70982;BME280;58640;51.320;9.456;2023-03-29T02:05:45;99498.34;;;3.42;96.24
70982;BME280;58640;51.320;9.456;2023-03-29T02:08:13;99498.72;;;3.58;95.39
70982;BME280;58640;51.320;9.456;2023-03-29T02:10:40;99499.25;;;3.52;95.58
70982;BME280;58640;51.320;9.456;2023-03-29T02:13:06;99495.44;;;3.45;95.76
70982;BME280;58640;51.320;9.456;2023-03-29T02:15:31;99488.31;;;3.46;96.55
70982;BME280;58640;51.320;9.456;2023-03-29T02:17:57;99485.03;;;3.63;94.83
70982;BME280;58640;51.320;9.456;2023-03-29T02:20:26;99480.31;;;3.66;94.46
70982;BME280;58640;51.320;9.456;2023-03-29T02:23:08;99481.66;;;3.61;95.20
70982;BME280;58640;51.320;9.456;2023-03-29T02:25:38;99468.31;;;3.51;94.83
70982;BME280;58640;51.320;9.456;2023-03-29T02:28:05;99462.56;;;3.46;95.74
70982;BME280;58640;51.320;9.456;2023-03-29T02:30:56;99458.44;;;3.63;94.04
70982;BME280;58640;51.320;9.456;2023-03-29T02:36:38;99461.78;;;3.55;93.90
70982;BME280;58640;51.320;9.456;2023-03-29T02:39:07;99460.47;;;3.50;94.87
70982;BME280;58640;51.320;9.456;2023-03-29T02:41:35;99463.78;;;3.42;95.91
70982;BME280;58640;51.320;9.456;2023-03-29T02:44:03;99457.75;;;3.40;96.03
70982;BME280;58640;51.320;9.456;2023-03-29T02:46:29;99450.09;;;3.26;96.30
70982;BME280;58640;51.320;9.456;2023-03-29T02:48:56;99446.72;;;3.24;97.21
70982;BME280;58640;51.320;9.456;2023-03-29T02:51:25;99441.72;;;3.31;96.55
70982;BME280;58640;51.320;9.456;2023-03-29T02:53:58;99436.03;;;3.35;95.98
70982;BME280;58640;51.320;9.456;2023-03-29T02:56:25;99431.88;;;3.42;95.53
70982;BME280;58640;51.320;9.456;2023-03-29T02:58:51;99428.19;;;3.34;96.02
70982;BME280;58640;51.320;9.456;2023-03-29T03:01:16;99433.63;;;3.32;96.75
70982;BME280;58640;51.320;9.456;2023-03-29T03:03:42;99421.97;;;3.44;95.29
70982;BME280;58640;51.320;9.456;2023-03-29T03:06:09;99435.66;;;3.40;95.00
70982;BME280;58640;51.320;9.456;2023-03-29T03:08:34;99428.03;;;3.35;96.17
70982;BME280;58640;51.320;9.456;2023-03-29T03:11:00;99432.25;;;3.58;94.88
70982;BME280;58640;51.320;9.456;2023-03-29T03:13:25;99430.75;;;3.65;93.73
70982;BME280;58640;51.320;9.456;2023-03-29T03:15:51;99422.50;;;3.68;94.23
70982;BME280;58640;51.320;9.456;2023-03-29T03:18:16;99429.00;;;3.55;94.34
70982;BME280;58640;51.320;9.456;2023-03-29T03:20:42;99419.50;;;3.82;92.79
70982;BME280;58640;51.320;9.456;2023-03-29T03:23:10;99425.00;;;3.60;93.98
70982;BME280;58640;51.320;9.456;2023-03-29T03:25:36;99405.78;;;3.57;93.88
70982;BME280;58640;51.320;9.456;2023-03-29T03:28:01;99418.38;;;3.55;94.40
70982;BME280;58640;51.320;9.456;2023-03-29T03:30:27;99412.09;;;3.56;94.26
70982;BME280;58640;51.320;9.456;2023-03-29T03:32:53;99413.31;;;3.52;95.00
70982;BME280;58640;51.320;9.456;2023-03-29T03:35:21;99410.13;;;3.58;94.86
70982;BME280;58640;51.320;9.456;2023-03-29T03:37:47;99406.88;;;3.54;95.24
70982;BME280;58640;51.320;9.456;2023-03-29T03:40:12;99410.13;;;3.58;94.55
70982;BME280;58640;51.320;9.456;2023-03-29T03:42:39;99413.47;;;3.50;95.24
70982;BME280;58640;51.320;9.456;2023-03-29T03:45:06;99419.03;;;3.47;95.60
70982;BME280;58640;51.320;9.456;2023-03-29T03:47:33;99414.94;;;3.43;96.24
70982;BME280;58640;51.320;9.456;2023-03-29T03:49:58;99419.41;;;3.63;94.65
70982;BME280;58640;51.320;9.456;2023-03-29T03:52:24;99417.28;;;3.57;94.79
70982;BME280;58640;51.320;9.456;2023-03-29T03:54:49;99409.25;;;3.78;93.38
70982;BME280;58640;51.320;9.456;2023-03-29T03:57:15;99417.19;;;3.68;94.09
70982;BME280;58640;51.320;9.456;2023-03-29T03:59:40;99406.81;;;3.65;94.67
70982;BME280;58640;51.320;9.456;2023-03-29T04:02:06;99404.16;;;3.65;94.52
70982;BME280;58640;51.320;9.456;2023-03-29T04:04:31;99410.06;;;3.78;94.06
70982;BME280;58640;51.320;9.456;2023-03-29T04:06:57;99399.53;;;3.67;94.07
70982;BME280;58640;51.320;9.456;2023-03-29T04:09:28;99393.34;;;3.57;95.21
70982;BME280;58640;51.320;9.456;2023-03-29T04:11:54;99399.53;;;3.67;93.74
70982;BME280;58640;51.320;9.456;2023-03-29T04:14:20;99401.22;;;3.68;94.55
70982;BME280;58640;51.320;9.456;2023-03-29T04:16:45;99400.59;;;3.55;95.25
70982;BME280;58640;51.320;9.456;2023-03-29T04:19:11;99392.81;;;3.63;94.91
70982;BME280;58640;51.320;9.456;2023-03-29T04:21:37;99388.53;;;3.51;96.00
70982;BME280;58640;51.320;9.456;2023-03-29T04:24:03;99375.38;;;3.50;96.15
70982;BME280;58640;51.320;9.456;2023-03-29T04:26:28;99370.00;;;3.40;96.40
70982;BME280;58640;51.320;9.456;2023-03-29T04:28:53;99367.25;;;3.51;96.20
70982;BME280;58640;51.320;9.456;2023-03-29T04:31:19;99374.28;;;3.52;96.25
70982;BME280;58640;51.320;9.456;2023-03-29T04:33:44;99370.06;;;3.50;95.83
70982;BME280;58640;51.320;9.456;2023-03-29T04:36:11;99365.41;;;3.42;96.68
70982;BME280;58640;51.320;9.456;2023-03-29T04:38:38;99370.19;;;3.48;96.56
70982;BME280;58640;51.320;9.456;2023-03-29T04:41:06;99366.31;;;3.52;96.36
70982;BME280;58640;51.320;9.456;2023-03-29T04:43:32;99358.56;;;3.40;96.91
70982;BME280;58640;51.320;9.456;2023-03-29T04:45:58;99355.78;;;3.41;96.93
70982;BME280;58640;51.320;9.456;2023-03-29T04:48:24;99363.81;;;3.60;95.44
70982;BME280;58640;51.320;9.456;2023-03-29T04:50:50;99364.84;;;3.39;96.84
70982;BME280;58640;51.320;9.456;2023-03-29T04:53:15;99368.38;;;3.49;96.35
70982;BME280;58640;51.320;9.456;2023-03-29T04:55:41;99360.81;;;3.44;97.00
70982;BME280;58640;51.320;9.456;2023-03-29T04:58:06;99358.28;;;3.43;96.44
70982;BME280;58640;51.320;9.456;2023-03-29T05:00:32;99359.38;;;3.40;96.53
70982;BME280;58640;51.320;9.456;2023-03-29T05:02:57;99359.09;;;3.43;96.92
70982;BME280;58640;51.320;9.456;2023-03-29T05:05:23;99356.59;;;3.42;97.11
70982;BME280;58640;51.320;9.456;2023-03-29T05:07:49;99365.69;;;3.39;97.96
70982;BME280;58640;51.320;9.456;2023-03-29T05:10:15;99355.19;;;3.38;97.66
70982;BME280;58640;51.320;9.456;2023-03-29T05:12:41;99357.16;;;3.45;96.86
70982;BME280;58640;51.320;9.456;2023-03-29T05:15:07;99354.97;;;3.50;96.43
70982;BME280;58640;51.320;9.456;2023-03-29T05:17:33;99365.50;;;3.61;95.76
70982;BME280;58640;51.320;9.456;2023-03-29T05:19:59;99360.91;;;3.63;95.46
70982;BME280;58640;51.320;9.456;2023-03-29T05:22:25;99353.69;;;3.84;94.39
70982;BME280;58640;51.320;9.456;2023-03-29T05:24:51;99359.63;;;3.67;95.31
70982;BME280;58640;51.320;9.456;2023-03-29T05:27:17;99348.38;;;3.84;94.82
70982;BME280;58640;51.320;9.456;2023-03-29T05:29:42;99340.78;;;3.80;95.45
70982;BME280;58640;51.320;9.456;2023-03-29T05:32:09;99344.72;;;3.85;94.21
70982;BME280;58640;51.320;9.456;2023-03-29T05:34:35;99353.25;;;3.79;95.13
70982;BME280;58640;51.320;9.456;2023-03-29T05:37:01;99350.59;;;3.79;95.46
70982;BME280;58640;51.320;9.456;2023-03-29T05:39:26;99334.28;;;4.12;93.65
70982;BME280;58640;51.320;9.456;2023-03-29T05:41:51;99335.13;;;4.22;92.23
70982;BME280;58640;51.320;9.456;2023-03-29T05:44:18;99336.94;;;4.03;93.19
70982;BME280;58640;51.320;9.456;2023-03-29T05:46:44;99326.97;;;3.95;94.14
70982;BME280;58640;51.320;9.456;2023-03-29T05:49:09;99325.53;;;3.82;95.03
70982;BME280;58640;51.320;9.456;2023-03-29T05:51:36;99341.97;;;4.06;93.59
70982;BME280;58640;51.320;9.456;2023-03-29T05:54:01;99339.75;;;4.20;92.55
70982;BME280;58640;51.320;9.456;2023-03-29T05:56:27;99340.72;;;4.10;93.28
70982;BME280;58640;51.320;9.456;2023-03-29T05:58:53;99335.00;;;4.14;93.30
70982;BME280;58640;51.320;9.456;2023-03-29T06:01:21;99323.78;;;4.30;91.99
70982;BME280;58640;51.320;9.456;2023-03-29T06:03:49;99314.41;;;4.45;91.37
70982;BME280;58640;51.320;9.456;2023-03-29T06:06:14;99320.72;;;4.44;90.88
70982;BME280;58640;51.320;9.456;2023-03-29T06:08:40;99323.09;;;4.37;90.72
70982;BME280;58640;51.320;9.456;2023-03-29T06:11:06;99329.84;;;4.41;90.82
70982;BME280;58640;51.320;9.456;2023-03-29T06:13:35;99335.44;;;4.38;89.84
70982;BME280;58640;51.320;9.456;2023-03-29T06:16:02;99334.59;;;4.38;89.85
70982;BME280;58640;51.320;9.456;2023-03-29T06:18:28;99344.53;;;4.45;89.56
70982;BME280;58640;51.320;9.456;2023-03-29T06:20:54;99347.19;;;4.36;89.94
70982;BME280;58640;51.320;9.456;2023-03-29T06:23:21;99341.03;;;4.35;90.61
70982;BME280;58640;51.320;9.456;2023-03-29T06:25:47;99347.34;;;4.44;90.28
70982;BME280;58640;51.320;9.456;2023-03-29T06:28:15;99352.94;;;4.41;90.39
70982;BME280;58640;51.320;9.456;2023-03-29T06:30:42;99344.09;;;4.60;88.93
70982;BME280;58640;51.320;9.456;2023-03-29T06:33:08;99352.81;;;4.52;89.72
70982;BME280;58640;51.320;9.456;2023-03-29T06:35:35;99347.75;;;4.68;88.94
70982;BME280;58640;51.320;9.456;2023-03-29T06:38:01;99349.19;;;4.72;88.08
70982;BME280;58640;51.320;9.456;2023-03-29T06:40:27;99352.78;;;4.81;88.63
70982;BME280;58640;51.320;9.456;2023-03-29T06:42:56;99352.78;;;5.00;86.57
70982;BME280;58640;51.320;9.456;2023-03-29T06:45:23;99358.66;;;5.03;86.58
70982;BME280;58640;51.320;9.456;2023-03-29T06:47:49;99359.22;;;5.07;87.19
70982;BME280;58640;51.320;9.456;2023-03-29T06:50:15;99359.34;;;5.15;86.85
70982;BME280;58640;51.320;9.456;2023-03-29T06:52:42;99364.13;;;5.11;86.97
70982;BME280;58640;51.320;9.456;2023-03-29T06:55:08;99367.09;;;5.08;87.13
70982;BME280;58640;51.320;9.456;2023-03-29T06:57:35;99359.22;;;5.07;86.70
70982;BME280;58640;51.320;9.456;2023-03-29T07:00:00;99352.84;;;5.27;85.62
70982;BME280;58640;51.320;9.456;2023-03-29T07:02:26;99356.09;;;5.21;85.38
70982;BME280;58640;51.320;9.456;2023-03-29T07:04:53;99354.94;;;5.42;85.17
70982;BME280;58640;51.320;9.456;2023-03-29T07:07:19;99353.09;;;5.43;84.97
70982;BME280;58640;51.320;9.456;2023-03-29T07:09:47;99353.94;;;5.43;84.88
70982;BME280;58640;51.320;9.456;2023-03-29T07:12:19;99352.66;;;5.47;84.77
70982;BME280;58640;51.320;9.456;2023-03-29T07:14:46;99350.88;;;5.38;85.53
70982;BME280;58640;51.320;9.456;2023-03-29T07:17:11;99352.34;;;5.60;83.99
70982;BME280;58640;51.320;9.456;2023-03-29T07:19:37;99349.59;;;5.42;85.20
70982;BME280;58640;51.320;9.456;2023-03-29T07:22:03;99346.78;;;5.44;85.07
70982;BME280;58640;51.320;9.456;2023-03-29T07:24:28;99361.47;;;5.57;84.59
70982;BME280;58640;51.320;9.456;2023-03-29T07:26:54;99360.34;;;5.60;84.20
70982;BME280;58640;51.320;9.456;2023-03-29T07:29:19;99347.06;;;5.77;83.01
70982;BME280;58640;51.320;9.456;2023-03-29T07:31:44;99351.66;;;5.94;82.53
70982;BME280;58640;51.320;9.456;2023-03-29T07:34:10;99348.03;;;5.86;82.71
70982;BME280;58640;51.320;9.456;2023-03-29T07:36:39;99347.88;;;5.87;82.75
70982;BME280;58640;51.320;9.456;2023-03-29T07:39:05;99345.75;;;5.91;82.26
70982;BME280;58640;51.320;9.456;2023-03-29T07:41:31;99354.22;;;5.86;81.96
70982;BME280;58640;51.320;9.456;2023-03-29T07:43:57;99358.50;;;5.97;82.15
70982;BME280;58640;51.320;9.456;2023-03-29T07:46:23;99353.41;;;6.04;82.66
70982;BME280;58640;51.320;9.456;2023-03-29T07:48:49;99351.09;;;6.36;80.99
70982;BME280;58640;51.320;9.456;2023-03-29T07:51:14;99350.34;;;6.61;80.00
70982;BME280;58640;51.320;9.456;2023-03-29T07:53:40;99339.72;;;6.51;79.62
70982;BME280;58640;51.320;9.456;2023-03-29T07:56:06;99346.00;;;6.60;79.30
70982;BME280;58640;51.320;9.456;2023-03-29T07:58:32;99353.38;;;6.31;81.15
70982;BME280;58640;51.320;9.456;2023-03-29T08:00:58;99346.88;;;7.03;78.54
70982;BME280;58640;51.320;9.456;2023-03-29T08:03:24;99351.53;;;7.01;78.63
70982;BME280;58640;51.320;9.456;2023-03-29T08:05:49;99354.44;;;7.08;78.29
70982;BME280;58640;51.320;9.456;2023-03-29T08:08:15;99351.59;;;7.09;77.82
70982;BME280;58640;51.320;9.456;2023-03-29T08:10:41;99341.50;;;7.21;78.35
70982;BME280;58640;51.320;9.456;2023-03-29T08:13:07;99347.59;;;7.65;76.75
70982;BME280;58640;51.320;9.456;2023-03-29T08:15:34;99348.97;;;7.69;75.75
70982;BME280;58640;51.320;9.456;2023-03-29T08:17:59;99359.25;;;7.81;75.91
70982;BME280;58640;51.320;9.456;2023-03-29T08:20:25;99353.72;;;7.83;73.96
70982;BME280;58640;51.320;9.456;2023-03-29T08:22:50;99351.69;;;7.77;74.70
70982;BME280;58640;51.320;9.456;2023-03-29T08:25:17;99359.44;;;7.88;74.75
70982;BME280;58640;51.320;9.456;2023-03-29T08:27:42;99356.94;;;7.86;74.87
70982;BME280;58640;51.320;9.456;2023-03-29T08:30:09;99358.72;;;7.78;74.73
70982;BME280;58640;51.320;9.456;2023-03-29T08:32:35;99354.97;;;7.63;75.30
70982;BME280;58640;51.320;9.456;2023-03-29T08:35:04;99363.25;;;7.85;73.09
70982;BME280;58640;51.320;9.456;2023-03-29T08:37:31;99361.09;;;7.89;73.51
70982;BME280;58640;51.320;9.456;2023-03-29T08:39:57;99358.06;;;7.84;75.44
70982;BME280;58640;51.320;9.456;2023-03-29T08:48:37;99353.94;;;7.89;76.12
70982;BME280;58640;51.320;9.456;2023-03-29T08:51:27;99358.25;;;7.90;74.75
70982;BME280;58640;51.320;9.456;2023-03-29T08:56:26;99365.63;;;7.55;77.53
70982;BME280;58640;51.320;9.456;2023-03-29T08:58:53;99359.81;;;7.59;77.70
70982;BME280;58640;51.320;9.456;2023-03-29T09:01:22;99369.06;;;7.73;77.50
70982;BME280;58640;51.320;9.456;2023-03-29T09:06:22;99358.44;;;7.89;78.81
70982;BME280;58640;51.320;9.456;2023-03-29T09:08:49;99359.19;;;8.48;75.94
70982;BME280;58640;51.320;9.456;2023-03-29T09:22:10;99339.75;;;9.89;68.50
70982;BME280;58640;51.320;9.456;2023-03-29T09:27:33;99335.06;;;9.91;69.58
70982;BME280;58640;51.320;9.456;2023-03-29T09:30:08;99336.75;;;9.92;69.38
70982;BME280;58640;51.320;9.456;2023-03-29T09:32:46;99338.63;;;9.84;69.92
70982;BME280;58640;51.320;9.456;2023-03-29T09:35:26;99338.94;;;9.89;68.90
70982;BME280;58640;51.320;9.456;2023-03-29T09:37:54;99331.22;;;10.55;65.94
70982;BME280;58640;51.320;9.456;2023-03-29T09:42:50;99338.78;;;10.52;66.89
70982;BME280;58640;51.320;9.456;2023-03-29T09:45:16;99333.31;;;10.14;66.43
70982;BME280;58640;51.320;9.456;2023-03-29T09:47:47;99331.38;;;9.92;67.71
70982;BME280;58640;51.320;9.456;2023-03-29T09:50:19;99317.31;;;10.21;66.90
70982;BME280;58640;51.320;9.456;2023-03-29T09:52:47;99316.47;;;10.51;66.05
70982;BME280;58640;51.320;9.456;2023-03-29T09:55:15;99313.81;;;10.43;66.10
70982;BME280;58640;51.320;9.456;2023-03-29T09:57:41;99313.97;;;10.72;65.66
70982;BME280;58640;51.320;9.456;2023-03-29T10:00:08;99314.53;;;10.82;65.73
70982;BME280;58640;51.320;9.456;2023-03-29T10:02:35;99312.16;;;11.24;64.07
70982;BME280;58640;51.320;9.456;2023-03-29T10:05:03;99313.19;;;10.64;65.29
70982;BME280;58640;51.320;9.456;2023-03-29T10:07:36;99321.38;;;10.93;65.04
70982;BME280;58640;51.320;9.456;2023-03-29T10:10:09;99321.81;;;10.28;67.11
70982;BME280;58640;51.320;9.456;2023-03-29T10:12:35;99327.97;;;10.37;66.78
70982;BME280;58640;51.320;9.456;2023-03-29T10:15:02;99338.28;;;10.25;66.18
70982;BME280;58640;51.320;9.456;2023-03-29T10:17:37;99339.81;;;10.20;67.00
70982;BME280;58640;51.320;9.456;2023-03-29T10:20:06;99328.03;;;10.29;67.45
70982;BME280;58640;51.320;9.456;2023-03-29T10:22:34;99328.22;;;10.27;67.99
70982;BME280;58640;51.320;9.456;2023-03-29T10:25:02;99328.09;;;10.44;67.70
70982;BME280;58640;51.320;9.456;2023-03-29T10:27:30;99317.78;;;10.24;67.50
70982;BME280;58640;51.320;9.456;2023-03-29T10:29:58;99324.34;;;10.53;67.58
70982;BME280;58640;51.320;9.456;2023-03-29T10:32:33;99317.22;;;10.37;67.22
70982;BME280;58640;51.320;9.456;2023-03-29T10:35:12;99313.47;;;10.46;67.52
70982;BME280;58640;51.320;9.456;2023-03-29T10:37:43;99303.16;;;10.58;66.39
70982;BME280;58640;51.320;9.456;2023-03-29T10:40:21;99305.22;;;10.93;65.01
70982;BME280;58640;51.320;9.456;2023-03-29T10:42:49;99308.84;;;10.77;66.62
70982;BME280;58640;51.320;9.456;2023-03-29T10:45:27;99314.97;;;10.94;65.74
70982;BME280;58640;51.320;9.456;2023-03-29T10:47:56;99312.13;;;11.10;64.81
70982;BME280;58640;51.320;9.456;2023-03-29T10:50:23;99309.97;;;11.05;64.38
70982;BME280;58640;51.320;9.456;2023-03-29T10:52:48;99310.06;;;10.97;65.24
70982;BME280;58640;51.320;9.456;2023-03-29T10:55:14;99316.44;;;10.96;64.90
70982;BME280;58640;51.320;9.456;2023-03-29T11:03:32;99308.84;;;11.00;64.93
70982;BME280;58640;51.320;9.456;2023-03-29T11:06:32;99308.16;;;10.83;65.39
70982;BME280;58640;51.320;9.456;2023-03-29T11:09:05;99304.50;;;10.76;64.93
70982;BME280;58640;51.320;9.456;2023-03-29T11:28:15;99294.03;;;10.59;66.81
70982;BME280;58640;51.320;9.456;2023-03-29T11:31:06;99300.03;;;10.69;67.06
70982;BME280;58640;51.320;9.456;2023-03-29T11:33:44;99287.38;;;10.92;66.07
70982;BME280;58640;51.320;9.456;2023-03-29T11:36:38;99283.97;;;10.98;66.99
70982;BME280;58640;51.320;9.456;2023-03-29T11:39:14;99283.19;;;11.12;67.20
70982;BME280;58640;51.320;9.456;2023-03-29T11:41:48;99276.72;;;11.35;66.06
70982;BME280;58640;51.320;9.456;2023-03-29T11:44:19;99278.16;;;11.09;66.34
70982;BME280;58640;51.320;9.456;2023-03-29T11:47:07;99279.03;;;11.38;65.23
70982;BME280;58640;51.320;9.456;2023-03-29T11:49:50;99265.56;;;11.38;66.80
70982;BME280;58640;51.320;9.456;2023-03-29T11:52:21;99268.38;;;11.74;65.80
70982;BME280;58640;51.320;9.456;2023-03-29T11:54:56;99258.59;;;12.59;64.76
70982;BME280;58640;51.320;9.456;2023-03-29T11:57:29;99261.22;;;12.52;63.79
70982;BME280;58640;51.320;9.456;2023-03-29T12:02:43;99258.38;;;12.81;62.34
70982;BME280;58640;51.320;9.456;2023-03-29T12:05:45;99255.09;;;13.07;61.82
70982;BME280;58640;51.320;9.456;2023-03-29T12:08:19;99253.09;;;13.15;61.34
70982;BME280;58640;51.320;9.456;2023-03-29T12:13:42;99244.97;;;12.94;60.63
70982;BME280;58640;51.320;9.456;2023-03-29T12:16:18;99242.88;;;12.90;62.35
70982;BME280;58640;51.320;9.456;2023-03-29T12:18:48;99234.13;;;12.88;62.51
70982;BME280;58640;51.320;9.456;2023-03-29T12:21:20;99247.78;;;13.01;61.02
70982;BME280;58640;51.320;9.456;2023-03-29T12:23:46;99245.53;;;13.32;60.08
70982;BME280;58640;51.320;9.456;2023-03-29T12:29:06;99232.06;;;13.39;59.60
70982;BME280;58640;51.320;9.456;2023-03-29T12:37:31;99228.78;;;12.94;62.01
70982;BME280;58640;51.320;9.456;2023-03-29T12:40:14;99229.38;;;13.11;61.73
70982;BME280;58640;51.320;9.456;2023-03-29T12:42:45;99232.63;;;13.34;61.69
70982;BME280;58640;51.320;9.456;2023-03-29T12:45:18;99227.50;;;13.80;59.73
70982;BME280;58640;51.320;9.456;2023-03-29T12:47:44;99229.88;;;13.27;60.57
70982;BME280;58640;51.320;9.456;2023-03-29T12:50:26;99238.47;;;13.10;62.35
70982;BME280;58640;51.320;9.456;2023-03-29T12:53:01;99224.00;;;13.52;61.50
70982;BME280;58640;51.320;9.456;2023-03-29T12:58:22;99222.72;;;13.88;59.17
70982;BME280;58640;51.320;9.456;2023-03-29T13:00:56;99222.31;;;13.85;58.06
70982;BME280;58640;51.320;9.456;2023-03-29T13:03:46;99215.50;;;13.95;58.21
70982;BME280;58640;51.320;9.456;2023-03-29T13:06:49;99204.25;;;13.92;59.40
70982;BME280;58640;51.320;9.456;2023-03-29T13:09:26;99199.47;;;13.53;60.05
70982;BME280;58640;51.320;9.456;2023-03-29T13:12:05;99189.19;;;13.29;60.44
70982;BME280;58640;51.320;9.456;2023-03-29T13:14:34;99183.34;;;13.26;61.39
70982;BME280;58640;51.320;9.456;2023-03-29T13:17:03;99176.56;;;13.08;61.53
70982;BME280;58640;51.320;9.456;2023-03-29T13:19:46;99190.31;;;12.86;62.23
70982;BME280;58640;51.320;9.456;2023-03-29T13:22:32;99184.13;;;12.64;63.64
70982;BME280;58640;51.320;9.456;2023-03-29T13:28:13;99176.81;;;12.58;63.97
70982;BME280;58640;51.320;9.456;2023-03-29T13:31:00;99175.44;;;12.48;63.91
70982;BME280;58640;51.320;9.456;2023-03-29T13:33:44;99176.72;;;12.73;63.40
70982;BME280;58640;51.320;9.456;2023-03-29T13:39:30;99178.78;;;12.50;64.02
70982;BME280;58640;51.320;9.456;2023-03-29T13:44:43;99174.41;;;12.70;63.58
70982;BME280;58640;51.320;9.456;2023-03-29T13:47:14;99166.94;;;12.72;64.35
70982;BME280;58640;51.320;9.456;2023-03-29T13:49:52;99158.38;;;12.62;64.19
70982;BME280;58640;51.320;9.456;2023-03-29T13:55:02;99154.38;;;13.06;61.80
70982;BME280;58640;51.320;9.456;2023-03-29T13:57:33;99150.75;;;12.99;62.92
70982;BME280;58640;51.320;9.456;2023-03-29T14:00:17;99153.09;;;12.81;63.41
70982;BME280;58640;51.320;9.456;2023-03-29T14:02:56;99151.03;;;13.04;63.97
70982;BME280;58640;51.320;9.456;2023-03-29T14:05:34;99139.19;;;13.46;63.01
70982;BME280;58640;51.320;9.456;2023-03-29T14:08:08;99134.06;;;13.71;62.00
70982;BME280;58640;51.320;9.456;2023-03-29T14:10:41;99136.78;;;13.71;63.31
70982;BME280;58640;51.320;9.456;2023-03-29T14:13:12;99127.59;;;13.59;62.51
70982;BME280;58640;51.320;9.456;2023-03-29T14:15:45;99131.00;;;13.27;62.86
70982;BME280;58640;51.320;9.456;2023-03-29T14:18:15;99130.00;;;13.41;62.54
70982;BME280;58640;51.320;9.456;2023-03-29T14:20:44;99129.00;;;13.07;64.01
70982;BME280;58640;51.320;9.456;2023-03-29T14:23:11;99133.53;;;13.00;63.78
70982;BME280;58640;51.320;9.456;2023-03-29T14:25:38;99132.00;;;13.19;63.44
70982;BME280;58640;51.320;9.456;2023-03-29T14:28:18;99135.41;;;13.41;62.54
70982;BME280;58640;51.320;9.456;2023-03-29T14:30:45;99135.19;;;13.29;62.35
70982;BME280;58640;51.320;9.456;2023-03-29T14:33:30;99130.94;;;13.20;63.04
70982;BME280;58640;51.320;9.456;2023-03-29T14:36:00;99128.69;;;13.23;62.11
70982;BME280;58640;51.320;9.456;2023-03-29T14:38:28;99126.78;;;13.17;63.19
70982;BME280;58640;51.320;9.456;2023-03-29T14:40:57;99136.31;;;13.13;63.61
70982;BME280;58640;51.320;9.456;2023-03-29T14:43:24;99142.47;;;13.35;62.82
70982;BME280;58640;51.320;9.456;2023-03-29T14:45:54;99131.00;;;13.27;62.93
70982;BME280;58640;51.320;9.456;2023-03-29T14:48:19;99132.47;;;13.36;62.75
70982;BME280;58640;51.320;9.456;2023-03-29T14:50:46;99134.41;;;13.42;62.65
70982;BME280;58640;51.320;9.456;2023-03-29T14:53:18;99130.81;;;13.88;61.22
70982;BME280;58640;51.320;9.456;2023-03-29T14:55:47;99131.38;;;13.64;61.84